Time;durP1;ratioP1;P1;durP2;ratioP2;P2;SDS_P1;SDS_P2;PMS_P1;PMS_P2;Temp;Humidity;BMP_temperature;BMP_pressure;BME280_temperature;BME280_humidity;BME280_pressure;Samples;Min_cycle;Max_cycle;Signal;HPM_P1;HPM_P2
2023/04/10 00:01:46;;;;;;;20.20;16.27;;;12.50;99.90;;;12.76;65.81;101861.56;4996232;28;20417;-69
2023/04/10 00:04:15;;;;;;;20.55;15.98;;;12.50;99.90;;;12.73;65.98;101848.28;4995858;28;20061;-69
2023/04/10 00:06:44;;;;;;;19.67;16.92;;;12.50;99.90;;;12.94;65.84;101866.91;4996220;28;20088;-70
2023/04/10 00:09:12;;;;;;;21.48;16.73;;;12.60;99.90;;;12.96;65.48;101857.19;4994971;28;20038;-69
2023/04/10 00:11:40;;;;;;;19.85;16.25;;;12.70;99.90;;;12.86;65.21;101858.94;4995803;28;20042;-69
2023/04/10 00:14:09;;;;;;;22.23;16.13;;;12.70;99.90;;;12.92;65.28;101856.28;4996047;28;20049;-69
2023/04/10 00:16:37;;;;;;;19.17;15.40;;;12.70;99.90;;;12.93;65.19;101852.75;4996095;28;20038;-69
2023/04/10 00:19:07;;;;;;;18.77;15.18;;;12.70;99.90;;;12.92;65.00;101847.44;4995658;28;20042;-69
2023/04/10 00:21:36;;;;;;;17.90;15.93;;;12.70;99.90;;;12.97;64.98;101853.66;4996272;28;20073;-69
2023/04/10 00:24:04;;;;;;;17.65;14.30;;;12.80;99.90;;;12.91;64.87;101854.50;4995844;28;20050;-69
2023/04/10 00:26:33;;;;;;;21.88;16.20;;;12.80;99.90;;;12.82;64.97;101858.91;4995494;28;20061;-69
2023/04/10 00:29:01;;;;;;;21.20;16.67;;;12.70;99.90;;;12.84;64.63;101849.19;4995638;28;20054;-69
2023/04/10 00:31:30;;;;;;;20.20;16.73;;;12.70;99.90;;;12.81;64.94;101850.09;4994455;28;20133;-69
2023/04/10 00:33:58;;;;;;;21.15;15.82;;;12.60;99.90;;;12.73;65.24;101842.97;4995635;28;20045;-69
2023/04/10 00:36:28;;;;;;;20.38;16.88;;;12.60;99.90;;;12.66;65.72;101853.56;4994417;28;20057;-69
2023/04/10 00:38:56;;;;;;;18.88;16.13;;;12.50;99.90;;;12.56;66.38;101830.53;4994321;28;20468;-69
2023/04/10 00:41:25;;;;;;;19.13;15.95;;;12.40;99.90;;;12.47;67.20;101825.22;4995561;28;20484;-69
2023/04/10 00:43:56;;;;;;;18.33;16.38;;;12.30;99.90;;;12.46;67.53;101823.44;4994224;28;20045;-69
2023/04/10 00:46:26;;;;;;;20.15;16.08;;;12.30;99.90;;;12.29;67.87;101819.81;4995482;28;20096;-69
2023/04/10 00:48:56;;;;;;;19.23;15.93;;;12.10;99.90;;;12.25;68.33;101819.84;4994095;28;20050;-69
2023/04/10 00:51:25;;;;;;;19.67;16.65;;;12.10;99.90;;;12.16;68.53;101814.47;4994454;28;20054;-69
2023/04/10 00:53:55;;;;;;;20.80;17.35;;;11.90;99.90;;;12.15;68.90;101813.59;4994036;28;20052;-69
2023/04/10 00:56:24;;;;;;;22.63;17.65;;;11.90;99.90;;;12.01;69.19;101801.16;4995335;28;20054;-69
2023/04/10 00:58:53;;;;;;;19.25;16.88;;;11.80;99.90;;;12.11;68.95;101795.00;4993951;28;20051;-69
2023/04/10 01:01:21;;;;;;;20.90;16.48;;;11.90;99.90;;;12.07;69.37;101799.41;4994891;28;20440;-69
2023/04/10 01:03:50;;;;;;;20.83;16.38;;;11.90;99.90;;;12.09;69.38;101794.13;4993825;28;20058;-69
2023/04/10 01:06:30;;;;;;;20.77;16.58;;;11.90;99.90;;;11.91;69.62;101775.47;4994878;28;20097;-69
2023/04/10 01:09:11;;;;;;;23.15;16.92;;;11.70;99.90;;;11.93;70.10;101771.06;4993648;28;20046;-69
2023/04/10 01:11:53;;;;;;;21.08;15.63;;;11.70;99.90;;;11.82;70.54;101776.31;4993763;28;20141;-69
2023/04/10 01:14:31;;;;;;;19.75;15.98;;;11.70;99.90;;;11.85;70.88;101771.03;4993668;28;20050;-69
2023/04/10 01:17:07;;;;;;;19.27;16.13;;;11.70;99.90;;;11.87;71.11;101769.25;4994837;28;20054;-69
2023/04/10 01:19:59;;;;;;;20.17;16.38;;;11.70;99.90;;;11.93;71.27;101763.09;4994819;28;20054;-69
2023/04/10 01:22:36;;;;;;;20.50;16.98;;;11.70;99.90;;;11.23;71.24;101648.78;4993337;28;20047;-69
2023/04/10 01:25:24;;;;;;;19.08;15.65;;;11.70;99.90;;;11.69;71.84;101746.19;4994408;28;20073;-69
2023/04/10 01:28:09;;;;;;;22.25;18.02;;;11.60;99.90;;;11.61;72.21;101753.19;4994507;28;20042;-70
2023/04/10 01:30:40;;;;;;;21.02;17.27;;;11.50;99.90;;;11.44;72.94;101751.34;4993564;28;20050;-69
2023/04/10 01:33:13;;;;;;;20.15;17.35;;;11.30;99.90;;;11.47;73.25;101752.25;4993335;28;20073;-69
2023/04/10 01:35:44;;;;;;;20.30;16.70;;;11.20;99.90;;;11.43;73.29;101753.09;4994685;28;20050;-69
2023/04/10 01:38:13;;;;;;;24.17;17.75;;;11.20;99.90;;;11.41;73.53;101746.00;4993217;28;20050;-69
2023/04/10 01:40:48;;;;;;;22.58;17.85;;;11.20;99.90;;;11.35;74.05;101738.91;4993380;28;20069;-69
2023/04/10 01:43:26;;;;;;;22.25;17.17;;;11.10;99.90;;;11.24;74.47;101740.63;4993149;28;20070;-69
2023/04/10 01:45:57;;;;;;;24.15;18.08;;;11.00;99.90;;;11.25;74.84;101731.78;4992879;28;20108;-69
2023/04/10 01:48:26;;;;;;;22.25;18.50;;;11.00;99.90;;;11.20;75.09;101722.03;4992967;28;20051;-69
2023/04/10 01:50:56;;;;;;;24.20;18.45;;;11.00;99.90;;;11.20;75.65;101733.53;4992873;28;20077;-69
2023/04/10 01:53:25;;;;;;;21.88;17.27;;;11.00;99.90;;;11.17;75.48;101732.63;4993138;28;20053;-69
2023/04/10 01:55:54;;;;;;;24.60;19.10;;;11.00;99.90;;;11.08;75.96;101733.44;4992584;28;20108;-69
2023/04/10 01:58:22;;;;;;;25.08;17.50;;;10.90;99.90;;;11.01;76.38;101730.72;4992477;28;20050;-69
2023/04/10 02:00:54;;;;;;;20.92;17.48;;;10.80;99.90;;;11.07;76.24;101738.72;4992837;28;20050;-69
2023/04/10 02:03:24;;;;;;;24.38;17.98;;;10.90;99.90;;;11.05;76.24;101728.13;4992700;28;20050;-69
2023/04/10 02:06:10;;;;;;;24.48;17.88;;;10.80;99.90;;;10.97;76.80;101724.53;4994237;28;20057;-69
2023/04/10 02:08:42;;;;;;;25.42;18.83;;;10.80;99.90;;;10.86;76.88;101715.59;4992674;28;20046;-69
2023/04/10 02:11:17;;;;;;;22.50;18.05;;;10.80;99.90;;;10.94;77.15;101735.06;4992702;28;20046;-69
2023/04/10 02:13:47;;;;;;;23.63;18.70;;;10.80;99.90;;;10.87;77.71;101736.81;4992331;28;20081;-69
2023/04/10 02:16:19;;;;;;;;;;;10.70;99.90;;;10.86;77.95;101731.47;4994335;28;20137;-69
2023/04/10 02:18:51;;;;;;;22.60;18.42;;;10.70;99.90;;;10.84;78.08;101738.50;4992727;28;20381;-69
2023/04/10 02:21:20;;;;;;;22.85;18.95;;;10.70;99.90;;;10.81;78.07;101728.81;4993823;28;20461;-69
2023/04/10 02:23:48;;;;;;;25.40;19.70;;;10.70;99.90;;;10.77;78.86;101727.00;4993721;28;20042;-69
2023/04/10 02:26:17;;;;;;;23.98;19.08;;;10.70;99.90;;;10.73;79.14;101724.31;4992424;28;20054;-69
2023/04/10 02:28:45;;;;;;;26.20;19.48;;;10.60;99.90;;;10.39;79.54;101691.41;4993540;28;20050;-69
2023/04/10 02:31:13;;;;;;;23.20;19.45;;;10.50;99.90;;;10.61;79.95;101740.97;4993619;28;20042;-69
2023/04/10 02:33:42;;;;;;;22.05;17.88;;;10.40;99.90;;;10.58;80.09;101734.78;4993002;28;20125;-70
2023/04/10 02:36:13;;;;;;;24.30;19.13;;;10.40;99.90;;;10.64;80.64;101743.66;4992534;28;20514;-69
2023/04/10 02:38:41;;;;;;;24.40;19.02;;;10.40;99.90;;;10.63;80.78;101744.53;4992224;28;20153;-69
2023/04/10 02:41:11;;;;;;;27.00;19.07;;;10.50;99.90;;;10.60;81.07;101740.97;4992226;28;20054;-69
2023/04/10 02:43:40;;;;;;;23.20;19.30;;;10.50;99.90;;;10.66;81.15;101739.28;4992106;28;20294;-69
2023/04/10 02:46:08;;;;;;;22.63;19.48;;;10.50;99.90;;;10.76;80.87;101753.47;4992186;28;20053;-69
2023/04/10 02:48:40;;;;;;;24.50;19.58;;;10.60;99.90;;;10.77;81.02;101747.28;4991905;28;20050;-69
2023/04/10 02:51:08;;;;;;;22.08;18.95;;;10.60;99.90;;;10.83;81.06;101747.34;4993008;28;20125;-69
2023/04/10 02:53:38;;;;;;;25.50;19.67;;;10.60;99.90;;;10.80;80.73;101748.19;4992156;28;20156;-69
2023/04/10 02:56:07;;;;;;;26.70;19.30;;;10.60;99.90;;;10.83;81.04;101737.66;4992115;28;20149;-69
2023/04/10 02:58:36;;;;;;;23.50;18.98;;;10.70;99.90;;;10.84;80.92;101749.09;4992095;28;20034;-69
2023/04/10 03:01:06;;;;;;;24.95;20.52;;;10.70;99.90;;;10.79;81.01;101719.97;4992239;28;20089;-69
2023/04/10 03:03:44;;;;;;;23.42;18.52;;;10.60;99.90;;;10.95;80.96;101731.56;4992072;28;20050;-69
2023/04/10 03:06:18;;;;;;;25.05;19.83;;;10.70;99.90;;;10.84;80.84;101722.63;4992213;28;20185;-69
2023/04/10 03:08:48;;;;;;;24.00;19.15;;;10.70;99.90;;;10.77;81.26;101721.72;4992235;28;20057;-69
2023/04/10 03:11:17;;;;;;;21.70;17.63;;;10.60;99.90;;;10.86;80.84;101715.59;4993333;28;20104;-69
2023/04/10 03:13:45;;;;;;;22.00;17.65;;;10.60;99.90;;;10.78;80.83;101712.88;4993160;28;20289;-69
2023/04/10 03:16:13;;;;;;;21.60;17.80;;;10.60;99.90;;;10.85;80.79;101720.03;4993259;28;20054;-69
2023/04/10 03:18:43;;;;;;;28.52;19.08;;;10.70;99.90;;;10.67;80.66;101719.88;4991875;28;20042;-69
2023/04/10 03:21:11;;;;;;;21.48;17.17;;;10.50;99.90;;;10.66;81.28;101717.22;4993145;28;20042;-69
2023/04/10 03:23:39;;;;;;;21.05;17.27;;;10.50;99.90;;;10.74;81.05;101715.53;4993453;28;20050;-69
2023/04/10 03:26:09;;;;;;;20.55;17.17;;;10.50;99.90;;;10.56;81.56;101721.53;4992848;28;20042;-69
2023/04/10 03:28:40;;;;;;;20.67;17.02;;;10.40;99.90;;;10.58;81.98;101708.31;4991732;28;20108;-69
2023/04/10 03:31:11;;;;;;;21.33;17.38;;;10.40;99.90;;;10.50;82.02;101704.72;4991987;28;20049;-69
2023/04/10 03:33:41;;;;;;;;;;;10.30;99.90;;;10.43;81.65;101695.81;4992293;28;20074;-69
2023/04/10 03:36:10;;;;;;;21.60;16.23;;;10.30;99.90;;;10.46;82.09;101692.31;4991703;28;19972;-69
2023/04/10 03:38:39;;;;;;;20.70;17.08;;;10.20;99.90;;;10.42;81.65;101688.78;4991757;28;20042;-69
2023/04/10 03:41:10;;;;;;;19.35;16.00;;;10.20;99.90;;;10.48;81.30;101687.94;4991759;28;20054;-69
2023/04/10 03:43:39;;;;;;;20.27;16.70;;;10.30;99.90;;;10.48;81.34;101678.25;4992351;28;20488;-69
2023/04/10 03:46:08;;;;;;;20.37;16.83;;;10.30;99.90;;;10.46;81.42;101676.47;4995573;28;20294;-69
2023/04/10 03:48:41;;;;;;;20.35;15.20;;;10.30;99.90;;;10.46;81.12;101682.63;4995257;28;20057;-69
2023/04/10 03:51:10;;;;;;;17.35;14.75;;;10.30;99.90;;;10.45;80.90;101669.41;4995021;28;20062;-69
2023/04/10 03:53:39;;;;;;;19.90;16.33;;;10.30;99.90;;;10.55;80.91;101668.63;4995161;28;20124;-69
2023/04/10 03:56:14;;;;;;;18.02;15.07;;;10.40;99.90;;;10.56;80.28;101668.63;4995090;28;20046;-69
2023/04/10 03:58:42;;;;;;;18.63;14.95;;;10.40;99.90;;;10.60;79.65;101659.84;4994906;28;20057;-69
2023/04/10 04:01:12;;;;;;;17.88;14.77;;;10.40;99.90;;;10.67;78.93;101666.06;4995045;28;20081;-69
2023/04/10 04:03:59;;;;;;;17.00;15.20;;;10.50;99.90;;;10.78;78.63;101661.75;4995028;28;20050;-69
2023/04/10 04:06:48;;;;;;;16.58;14.00;;;10.60;99.90;;;10.78;78.18;101662.63;4995761;28;20056;-69
2023/04/10 04:09:28;;;;;;;18.15;15.43;;;10.60;99.90;;;10.87;77.93;101664.44;4995209;28;20052;-69
2023/04/10 04:12:23;;;;;;;17.27;15.10;;;10.70;99.90;;;10.95;76.98;101660.09;4994815;28;20054;-69
2023/04/10 04:15:11;;;;;;;17.75;14.35;;;10.80;99.90;;;11.09;76.25;101668.13;4996023;28;20101;-69
2023/04/10 04:17:48;;;;;;;16.33;13.15;;;10.90;99.90;;;11.13;75.85;101654.03;4994767;28;20054;-69
2023/04/10 04:20:35;;;;;;;16.83;13.70;;;10.90;99.90;;;11.05;75.87;101656.66;4996065;28;20097;-69
2023/04/10 04:23:29;;;;;;;14.75;13.15;;;10.90;99.90;;;11.16;75.72;101652.28;4995321;28;20058;-69
2023/04/10 04:26:18;;;;;;;16.55;13.90;;;11.00;99.90;;;11.08;75.06;101640.75;4995298;28;20061;-70
2023/04/10 04:28:58;;;;;;;15.45;13.85;;;11.00;99.90;;;11.12;74.89;101631.97;4994424;28;20440;-69
2023/04/10 04:31:45;;;;;;;17.73;13.60;;;11.00;99.90;;;11.18;74.26;101639.06;4994459;28;20109;-69
2023/04/10 04:34:30;;;;;;;17.00;12.82;;;11.00;99.90;;;11.23;73.97;101637.31;4994447;28;20185;-69
2023/04/10 04:37:16;;;;;;;17.02;15.13;;;11.10;99.90;;;11.36;74.21;101634.72;4995489;28;20360;-69
2023/04/10 04:40:05;;;;;;;16.98;14.55;;;11.10;99.90;;;11.30;74.39;101623.22;4995483;28;20117;-69
2023/04/10 04:42:46;;;;;;;16.85;13.63;;;11.10;99.90;;;11.27;74.22;101632.03;4994640;28;20061;-69
2023/04/10 04:45:24;;;;;;;17.75;15.00;;;11.10;99.90;;;11.17;74.70;101632.00;4994281;28;20069;-69
2023/04/10 04:48:12;;;;;;;18.45;14.40;;;11.00;99.90;;;11.13;75.31;101620.47;4995461;28;20038;-69
2023/04/10 04:50:59;;;;;;;18.63;13.98;;;10.90;99.90;;;10.93;75.44;101595.69;4995165;28;20148;-69
2023/04/10 04:53:47;;;;;;;17.67;15.30;;;10.90;99.90;;;10.97;76.40;101623.94;4995076;28;20459;-69
2023/04/10 04:56:34;;;;;;;16.27;14.57;;;10.80;99.90;;;10.85;76.51;101618.56;4994669;28;20510;-69
2023/04/10 04:59:10;;;;;;;17.67;14.05;;;10.70;99.90;;;10.89;76.81;101628.28;4993954;28;20547;-69
2023/04/10 05:01:56;;;;;;;17.00;14.25;;;10.70;99.90;;;10.81;77.27;101624.72;4993966;28;20050;-69
2023/04/10 05:04:57;;;;;;;16.17;13.93;;;10.60;99.90;;;10.79;77.40;101623.81;4993557;28;20046;-69
2023/04/10 05:07:39;;;;;;;16.40;14.65;;;10.60;99.90;;;10.73;77.15;101618.47;4993839;28;20058;-69
2023/04/10 05:10:38;;;;;;;14.88;13.25;;;10.50;99.90;;;10.74;77.65;101617.63;4993791;28;20131;-69
2023/04/10 05:13:16;;;;;;;16.05;14.38;;;10.50;99.90;;;10.71;77.32;101621.13;4994986;28;20078;-69
2023/04/10 05:16:13;;;;;;;15.63;13.80;;;10.50;99.90;;;10.74;77.61;101620.25;4990008;28;20046;-69
2023/04/10 05:19:07;;;;;;;16.55;13.77;;;10.50;99.90;;;10.70;77.25;101616.69;4994833;28;20038;-69
2023/04/10 05:21:54;;;;;;;16.00;13.05;;;10.50;99.90;;;10.61;77.52;101615.72;4994902;28;20128;-69
2023/04/10 05:24:41;;;;;;;14.85;13.25;;;10.40;99.90;;;10.61;77.30;101619.28;4994784;28;20057;-70
2023/04/10 05:27:13;;;;;;;14.38;12.63;;;10.40;99.90;;;10.51;77.65;101595.41;4993456;28;20070;-69
2023/04/10 05:30:01;;;;;;;21.23;14.43;;;10.40;99.90;;;10.57;77.51;101604.25;4994999;28;20177;-69
2023/04/10 05:32:58;;;;;;;16.65;13.40;;;10.40;99.90;;;10.63;77.89;101608.69;4989381;28;20046;-69
2023/04/10 05:35:53;;;;;;;15.07;13.48;;;10.50;99.90;;;10.64;77.48;101610.47;4957451;28;20050;-69
2023/04/10 05:38:37;;;;;;;14.50;12.52;;;10.40;99.90;;;10.62;77.17;101610.47;4993225;28;20469;-69
2023/04/10 05:41:26;;;;;;;15.60;13.95;;;10.50;99.90;;;10.60;77.45;101596.34;4993159;28;20083;-69
2023/04/10 05:44:03;;;;;;;15.20;13.60;;;10.40;99.90;;;10.61;77.93;101592.81;4993167;28;20145;-69
2023/04/10 05:46:50;;;;;;;15.75;12.38;;;10.40;99.90;;;10.61;77.40;101590.16;4994140;28;20057;-69
2023/04/10 05:49:26;;;;;;;19.42;14.10;;;10.40;99.90;;;10.64;77.49;101597.25;4993023;28;20378;-69
2023/04/10 05:52:14;;;;;;;15.48;13.88;;;10.40;99.90;;;10.66;76.91;101590.22;4994191;28;20049;-69
2023/04/10 05:54:42;;;;;;;15.60;13.57;;;10.40;99.90;;;10.69;77.04;101590.22;4994295;28;20089;-69
2023/04/10 05:57:26;;;;;;;14.65;13.25;;;10.50;99.90;;;10.70;77.14;101592.00;4994163;28;20050;-70
2023/04/10 06:00:26;;;;;;;14.20;12.27;;;10.50;99.90;;;10.67;76.69;101595.50;4982030;28;20047;-69
2023/04/10 06:03:29;;;;;;;;;;;10.50;99.90;;;10.66;76.48;101580.53;4993055;28;20409;-69
2023/04/10 06:06:02;;;;;;;15.15;12.40;;;10.50;99.90;;;10.75;76.41;101584.97;4993075;28;19925;-69
2023/04/10 06:08:33;;;;;;;14.77;12.40;;;10.50;99.90;;;10.71;76.19;101580.53;4991983;28;20046;-69
2023/04/10 06:11:02;;;;;;;15.30;13.63;;;10.50;99.90;;;10.75;76.45;101584.97;4992569;28;20046;-69
2023/04/10 06:13:32;;;;;;;16.95;13.27;;;10.50;99.90;;;10.73;75.43;101587.63;4992726;28;20097;-69
2023/04/10 06:16:02;;;;;;;15.60;13.52;;;10.50;99.90;;;10.78;75.30;101567.34;4992590;28;20054;-69
2023/04/10 06:18:31;;;;;;;15.05;13.45;;;10.60;99.90;;;10.81;75.16;101567.38;4992539;28;20137;-69
2023/04/10 06:21:00;;;;;;;14.88;13.00;;;10.60;99.90;;;10.77;75.37;101555.00;4993527;28;20049;-69
2023/04/10 06:23:29;;;;;;;14.93;13.02;;;10.60;99.90;;;10.75;75.25;101553.22;4992448;28;20385;-69
2023/04/10 06:26:00;;;;;;;15.77;13.13;;;10.50;99.90;;;10.78;75.06;101540.88;4993426;28;20042;-69
2023/04/10 06:28:28;;;;;;;18.15;12.85;;;10.60;99.90;;;10.80;74.55;101543.56;4992075;28;20490;-69
2023/04/10 06:31:03;;;;;;;13.35;11.40;;;10.60;99.90;;;10.84;74.76;101550.63;4992986;28;20062;-69
2023/04/10 06:33:35;;;;;;;15.15;12.52;;;10.60;99.90;;;10.85;74.11;101536.53;4992256;28;20053;-67
2023/04/10 06:36:06;;;;;;;13.77;11.70;;;10.60;99.90;;;10.97;73.90;101541.88;4992614;28;20060;-67
2023/04/10 06:38:41;;;;;;;17.98;12.73;;;10.70;99.90;;;11.06;74.23;101535.72;4992446;28;20047;-67
2023/04/10 06:41:11;;;;;;;16.98;12.20;;;10.80;99.90;;;11.07;73.36;101542.81;4993447;28;20125;-67
2023/04/10 06:43:39;;;;;;;14.70;12.87;;;10.80;99.90;;;11.12;72.80;101543.69;4993125;28;20058;-67
2023/04/10 06:46:08;;;;;;;14.02;12.48;;;10.90;99.90;;;11.15;71.34;101541.94;4993172;28;20504;-68
2023/04/10 06:48:36;;;;;;;14.82;11.98;;;10.90;99.90;;;11.23;71.44;101552.56;4992022;28;20488;-68
2023/04/10 06:51:05;;;;;;;13.93;12.52;;;11.00;99.90;;;11.27;71.79;101541.09;4993028;28;20475;-68
2023/04/10 06:53:33;;;;;;;14.40;11.98;;;11.10;99.90;;;11.27;71.48;101528.75;4993044;28;20049;-68
2023/04/10 06:56:02;;;;;;;13.65;12.15;;;11.10;99.90;;;11.32;70.94;101542.91;4992348;28;20081;-69
2023/04/10 06:58:32;;;;;;;15.13;12.15;;;11.10;99.90;;;11.29;70.65;101531.41;4993343;28;20511;-69
2023/04/10 07:01:03;;;;;;;13.07;11.47;;;11.10;99.90;;;11.33;70.44;101528.78;4993020;28;20039;-70
2023/04/10 07:03:32;;;;;;;13.10;11.07;;;11.10;99.90;;;11.26;70.04;101516.41;4993022;28;20285;-68
2023/04/10 07:06:02;;;;;;;14.02;11.60;;;11.10;99.90;;;11.36;70.91;101522.63;4992960;28;20086;-68
2023/04/10 07:08:30;;;;;;;13.88;12.38;;;11.20;99.90;;;11.48;70.61;101523.50;4992910;28;20462;-70
2023/04/10 07:10:59;;;;;;;12.43;11.00;;;11.30;99.90;;;11.52;69.55;101522.63;4992971;28;20543;-71
2023/04/10 07:13:27;;;;;;;13.02;11.63;;;11.30;99.90;;;11.62;69.78;101511.19;4992936;28;20101;-70
2023/04/10 07:15:57;;;;;;;16.02;12.45;;;11.40;99.90;;;11.57;69.91;101509.41;4993187;28;20488;-69
2023/04/10 07:18:25;;;;;;;15.47;12.00;;;11.40;99.90;;;11.57;69.84;101497.06;4993624;28;20054;-69
2023/04/10 07:20:54;;;;;;;14.52;12.65;;;11.40;99.90;;;11.56;70.52;101487.31;4996708;28;20285;-69
2023/04/10 07:23:22;;;;;;;13.45;12.10;;;11.40;99.90;;;11.54;70.92;101482.91;4996951;28;20042;-69
2023/04/10 07:25:51;;;;;;;13.32;11.93;;;11.40;99.90;;;11.59;70.49;101491.75;4996792;28;20073;-69
2023/04/10 07:28:20;;;;;;;15.48;12.90;;;11.40;99.90;;;11.51;70.34;101485.56;4996603;28;20054;-70
2023/04/10 07:30:48;;;;;;;13.38;11.98;;;11.40;99.90;;;11.58;70.73;101485.56;4996869;28;20053;-70
2023/04/10 07:33:17;;;;;;;14.35;12.43;;;11.40;99.90;;;11.68;71.43;101471.47;4996418;28;20060;-69
2023/04/10 07:35:47;;;;;;;13.73;11.90;;;11.40;99.90;;;11.60;70.06;101490.84;4996792;28;20096;-68
2023/04/10 07:38:15;;;;;;;16.88;12.48;;;11.40;99.90;;;11.72;69.65;101473.25;4996647;28;20070;-72
2023/04/10 07:40:43;;;;;;;14.98;12.10;;;11.50;99.90;;;11.50;69.49;101441.38;4996843;28;20142;-69
2023/04/10 07:43:12;;;;;;;14.15;12.48;;;11.50;99.90;;;11.65;70.24;101482.06;4996516;28;20137;-69
2023/04/10 07:45:41;;;;;;;16.50;12.38;;;11.50;99.90;;;11.72;70.06;101461.75;4996441;28;20117;-70
2023/04/10 07:48:10;;;;;;;13.93;12.30;;;11.50;99.90;;;11.76;70.20;101458.22;4995024;28;20043;-70
2023/04/10 07:50:39;;;;;;;14.50;12.60;;;11.50;99.90;;;11.81;69.67;101458.25;4995956;28;20096;-69
2023/04/10 07:53:08;;;;;;;14.63;12.73;;;11.50;99.90;;;11.85;69.03;101449.38;4995820;28;20507;-70
2023/04/10 07:55:39;;;;;;;14.30;12.77;;;11.70;99.90;;;11.95;68.92;101457.34;4995999;28;20052;-68
2023/04/10 07:58:08;;;;;;;14.82;12.75;;;11.70;99.90;;;11.92;69.52;101452.06;4996171;28;20136;-68
2023/04/10 08:00:37;;;;;;;14.55;12.48;;;11.70;99.90;;;11.80;70.01;101452.06;4996437;28;20391;-69
2023/04/10 08:03:06;;;;;;;14.45;12.43;;;11.60;99.90;;;11.85;69.06;101431.72;4995632;28;20133;-68
2023/04/10 08:05:35;;;;;;;15.85;13.25;;;11.60;99.90;;;11.82;70.06;101420.25;4996474;28;20077;-68
2023/04/10 08:08:05;;;;;;;15.65;13.93;;;11.60;99.90;;;11.81;70.26;101423.78;4995833;28;20050;-69
2023/04/10 08:10:33;;;;;;;15.10;13.27;;;11.60;99.90;;;11.89;71.71;101419.34;4995844;28;20065;-69
2023/04/10 08:13:01;;;;;;;14.77;13.18;;;11.60;99.90;;;11.82;70.62;101409.63;4995525;28;20329;-70
2023/04/10 08:15:30;;;;;;;15.00;13.40;;;11.60;99.90;;;11.89;70.87;101420.22;4996007;28;20074;-70
2023/04/10 08:17:58;;;;;;;15.10;12.85;;;11.70;99.90;;;11.87;70.33;101415.81;4994482;28;20046;-70
2023/04/10 08:20:27;;;;;;;13.77;12.32;;;11.70;99.90;;;11.73;71.43;101376.06;4995705;28;20404;-69
2023/04/10 08:22:55;;;;;;;15.02;13.07;;;11.70;99.90;;;11.99;70.89;101397.25;4995377;28;20078;-68
2023/04/10 08:25:34;;;;;;;13.88;12.35;;;11.80;99.90;;;12.18;71.58;101417.53;4995275;28;20065;-69
2023/04/10 08:28:04;;;;;;;14.98;13.30;;;11.90;99.90;;;12.12;70.90;101412.22;4995484;28;20046;-67
2023/04/10 08:30:32;;;;;;;15.93;12.40;;;11.90;99.90;;;12.18;70.22;101412.22;4995003;28;20045;-68
2023/04/10 08:33:00;;;;;;;18.33;12.32;;;12.00;99.90;;;12.26;70.45;101411.31;4995460;28;20053;-69
2023/04/10 08:35:29;;;;;;;16.05;12.68;;;12.00;99.90;;;12.44;69.81;101410.41;4995219;28;20113;-70
2023/04/10 08:37:57;;;;;;;16.48;12.57;;;12.20;99.90;;;12.44;68.93;101399.78;4995061;28;20455;-70
2023/04/10 08:40:43;;;;;;;15.45;13.27;;;12.20;99.90;;;12.52;70.22;101390.03;4995216;28;20046;-69
2023/04/10 08:43:12;;;;;;;15.57;12.75;;;12.30;99.90;;;12.55;69.82;101392.66;4995066;28;20057;-70
2023/04/10 08:45:41;;;;;;;15.70;12.75;;;12.30;99.90;;;12.72;69.42;101389.94;4995197;28;20038;-68
2023/04/10 08:48:11;;;;;;;16.27;14.07;;;12.50;99.90;;;12.73;68.93;101374.00;4995705;28;20108;-69
2023/04/10 08:50:42;;;;;;;14.35;12.85;;;12.50;99.90;;;12.74;68.86;101380.19;4995449;28;20066;-69
2023/04/10 08:53:14;;;;;;;14.63;13.05;;;12.50;99.90;;;12.65;68.03;101381.13;4995021;28;20038;-68
2023/04/10 08:55:45;;;;;;;15.07;13.10;;;12.50;99.90;;;12.62;69.56;101363.41;4994073;28;20145;-68
2023/04/10 08:58:14;;;;;;;14.13;12.35;;;12.40;99.90;;;12.53;69.75;101366.13;4995292;28;20049;-68
2023/04/10 09:00:43;;;;;;;14.82;12.70;;;12.30;99.90;;;12.57;69.88;101367.88;4994829;28;20070;-68
2023/04/10 09:03:13;;;;;;;17.38;12.68;;;12.40;99.90;;;12.51;68.32;101373.22;4994889;28;20046;-69
2023/04/10 09:05:42;;;;;;;14.13;12.18;;;12.30;99.90;;;12.51;68.39;101353.75;4995269;28;20404;-68
2023/04/10 09:08:11;;;;;;;15.48;12.20;;;12.30;99.90;;;12.61;68.98;101360.78;4995272;28;20050;-69
2023/04/10 09:10:39;;;;;;;20.90;12.60;;;12.40;99.90;;;12.03;69.26;101242.56;4993549;28;20050;-68
2023/04/10 09:13:09;;;;;;;15.85;13.05;;;12.40;99.90;;;12.63;68.32;101346.63;4993471;28;20070;-68
2023/04/10 09:15:56;;;;;;;13.93;12.40;;;12.40;99.90;;;12.54;68.81;101335.19;4995109;28;20046;-68
2023/04/10 09:18:42;;;;;;;13.68;11.88;;;12.30;99.90;;;12.55;69.25;101350.19;4995108;28;20046;-68
2023/04/10 09:21:13;;;;;;;14.60;13.05;;;12.30;99.90;;;12.56;69.07;101341.38;4994656;28;20097;-68
2023/04/10 09:23:43;;;;;;;19.33;12.60;;;12.40;99.90;;;12.59;70.59;101326.31;4994578;28;20133;-68
2023/04/10 09:26:27;;;;;;;13.98;12.00;;;12.40;99.90;;;11.97;69.05;101219.63;4994694;28;20097;-68
2023/04/10 09:29:02;;;;;;;17.52;12.57;;;12.40;99.90;;;12.71;70.26;101330.66;4994507;28;20068;-68
2023/04/10 09:31:34;;;;;;;14.05;12.20;;;12.50;99.90;;;12.57;68.97;101298.88;4993239;28;20464;-68
2023/04/10 09:34:13;;;;;;;14.05;12.65;;;12.50;99.90;;;12.79;69.98;101326.19;4993992;28;20424;-68
2023/04/10 09:36:42;;;;;;;14.55;12.60;;;12.60;99.90;;;12.89;69.66;101325.22;4994179;28;20042;-67
2023/04/10 09:39:12;;;;;;;12.88;11.57;;;12.60;99.90;;;12.88;68.13;101323.47;4994263;28;20054;-69
2023/04/10 09:41:52;;;;;;;15.43;12.23;;;12.70;99.90;;;12.96;68.25;101334.03;4993066;28;20085;-69
2023/04/10 09:44:31;;;;;;;16.92;12.48;;;12.70;99.90;;;13.00;67.38;101327.81;4993020;28;20364;-69
2023/04/10 09:47:17;;;;;;;12.85;11.48;;;12.80;99.90;;;12.96;68.38;101313.69;4993259;28;20054;-69
2023/04/10 09:49:52;;;;;;;15.80;12.55;;;12.80;99.90;;;13.00;67.42;101295.94;4994014;28;20038;-71
2023/04/10 09:52:24;;;;;;;16.42;12.38;;;12.80;99.90;;;12.90;68.46;101279.19;4994112;28;20100;-68
2023/04/10 09:54:54;;;;;;;13.20;11.90;;;12.90;99.90;;;12.92;69.54;101268.56;4993662;28;20097;-70
2023/04/10 09:57:25;;;;;;;14.02;11.57;;;12.80;99.90;;;13.06;68.01;101296.81;4993189;28;20054;-70
2023/04/10 09:59:56;;;;;;;;;;;12.80;99.90;;;13.23;67.53;101308.19;4994510;28;20046;-68
2023/04/10 10:02:26;;;;;;;15.30;12.88;;;13.00;99.90;;;13.41;67.90;101277.94;4993842;28;19928;-68
2023/04/10 10:04:55;;;;;;;15.18;12.32;;;13.10;99.90;;;13.47;68.20;101293.81;4993457;28;20089;-69
2023/04/10 10:07:24;;;;;;;12.98;11.57;;;13.30;99.90;;;13.68;69.34;101290.06;4993588;28;20043;-68
2023/04/10 10:09:53;;;;;;;12.55;11.27;;;13.40;99.90;;;13.71;67.31;101277.59;4993679;28;20050;-67
2023/04/10 10:12:26;;;;;;;13.80;12.38;;;13.50;99.90;;;13.80;66.98;101281.97;4993682;28;20551;-68
2023/04/10 10:15:03;;;;;;;14.20;11.70;;;13.60;99.90;;;13.98;66.08;101287.94;4993492;28;20538;-68
2023/04/10 10:17:43;;;;;;;14.05;12.48;;;13.70;99.90;;;14.03;67.24;101285.22;4993349;28;20062;-68
2023/04/10 10:20:13;;;;;;;12.97;11.70;;;13.80;99.90;;;14.13;67.96;101265.59;4993600;28;20057;-68
2023/04/10 10:22:42;;;;;;;13.82;11.57;;;13.90;99.90;;;14.21;67.67;101263.69;4993536;28;20066;-67
2023/04/10 10:25:13;;;;;;;12.93;11.30;;;14.00;99.90;;;14.08;66.01;101263.00;4993653;28;20046;-67
2023/04/10 10:27:42;;;;;;;12.80;11.45;;;13.90;99.90;;;14.11;68.16;101230.16;4993498;28;20523;-68